createdAt,value
2018-10-04T00:00:33.953Z,3.20
2018-10-04T00:03:02.017Z,2.47
2018-10-04T00:05:30.077Z,3.60
2018-10-04T00:07:58.113Z,2.93
2018-10-04T00:10:26.138Z,2.70
2018-10-04T00:12:54.166Z,2.73
2018-10-04T00:15:22.234Z,2.60
2018-10-04T00:17:50.374Z,2.47
2018-10-04T00:20:18.536Z,2.87
2018-10-04T00:22:46.583Z,2.90
2018-10-04T00:25:14.626Z,3.73
2018-10-04T00:27:42.666Z,3.67
2018-10-04T00:30:10.730Z,2.10
2018-10-04T00:32:38.766Z,4.20
2018-10-04T00:35:06.836Z,2.77
2018-10-04T00:37:34.936Z,2.40
2018-10-04T00:40:03.080Z,2.40
2018-10-04T00:42:31.119Z,3.10
2018-10-04T00:44:59.185Z,3.50
2018-10-04T00:47:27.214Z,3.00
2018-10-04T00:49:55.231Z,3.30
2018-10-04T00:52:23.280Z,3.13
2018-10-04T00:54:51.390Z,3.53
2018-10-04T00:57:19.426Z,2.67
2018-10-04T00:59:47.531Z,3.30
2018-10-04T01:02:15.733Z,2.20
2018-10-04T01:04:43.782Z,2.40
2018-10-04T01:07:11.946Z,3.17
2018-10-04T01:09:39.981Z,3.90
2018-10-04T01:12:08.040Z,2.77
2018-10-04T01:14:36.097Z,3.23
2018-10-04T01:17:04.151Z,2.77
2018-10-04T01:19:32.213Z,3.27
2018-10-04T01:22:00.262Z,2.43
2018-10-04T01:24:28.338Z,2.30
2018-10-04T01:26:56.362Z,3.73
2018-10-04T01:29:24.508Z,3.63
2018-10-04T01:31:52.562Z,3.20
2018-10-04T01:34:20.619Z,2.90
2018-10-04T01:36:48.663Z,3.70
2018-10-04T01:39:16.725Z,2.33
2018-10-04T01:41:44.750Z,2.90
2018-10-04T01:44:12.799Z,2.77
2018-10-04T01:46:40.893Z,2.80
2018-10-04T01:51:43.353Z,2.90
2018-10-04T01:54:11.510Z,2.47
2018-10-04T01:56:39.606Z,3.57
2018-10-04T01:59:07.740Z,3.00
2018-10-04T02:01:35.795Z,5.73
2018-10-04T02:04:03.837Z,3.17
2018-10-04T02:06:31.906Z,2.93
2018-10-04T02:08:59.989Z,2.63
2018-10-04T02:11:28.034Z,3.27
2018-10-04T02:13:56.091Z,3.63
2018-10-04T02:16:24.121Z,3.00
2018-10-04T02:18:59.005Z,2.50
2018-10-04T02:21:27.554Z,4.73
2018-10-04T02:23:55.622Z,2.57
2018-10-04T02:26:23.718Z,3.17
2018-10-04T02:28:51.826Z,2.50
2018-10-04T02:31:20.881Z,3.10
2018-10-04T02:33:48.922Z,3.63
2018-10-04T02:36:16.955Z,3.50
2018-10-04T02:38:45.002Z,2.83
2018-10-04T02:41:13.088Z,4.10
2018-10-04T02:43:41.146Z,2.10
2018-10-04T02:46:09.219Z,3.00
2018-10-04T02:48:39.378Z,3.20
2018-10-04T02:51:07.410Z,3.50
2018-10-04T02:53:35.428Z,2.50
2018-10-04T02:56:08.781Z,3.20
2018-10-04T02:58:36.856Z,3.37
2018-10-04T03:01:04.927Z,3.57
2018-10-04T03:03:32.986Z,2.73
2018-10-04T03:06:01.014Z,3.13
2018-10-04T03:08:29.059Z,2.37
2018-10-04T03:10:57.107Z,2.43
2018-10-04T03:13:25.176Z,3.77
2018-10-04T03:15:53.230Z,3.03
2018-10-04T03:18:21.364Z,3.87
2018-10-04T03:20:49.386Z,3.77
2018-10-04T03:23:17.486Z,3.20
2018-10-04T03:25:45.509Z,3.53
2018-10-04T03:28:13.583Z,3.57
2018-10-04T03:30:41.612Z,3.00
2018-10-04T03:33:09.800Z,3.70
2018-10-04T03:35:44.680Z,3.73
2018-10-04T03:38:12.962Z,2.97
2018-10-04T03:40:40.976Z,4.83
2018-10-04T03:43:09.033Z,3.17
2018-10-04T03:45:37.169Z,3.03
2018-10-04T03:50:39.710Z,3.37
2018-10-04T03:53:07.861Z,3.27
2018-10-04T03:55:36.008Z,4.00
2018-10-04T03:58:04.087Z,3.83
2018-10-04T04:00:32.254Z,2.77
2018-10-04T04:03:00.281Z,4.40
2018-10-04T04:05:28.346Z,4.60
2018-10-04T04:07:56.534Z,3.70
2018-10-04T04:10:24.594Z,3.93
2018-10-04T04:12:52.694Z,3.03
2018-10-04T04:15:20.730Z,3.10
2018-10-04T04:17:48.794Z,4.57
2018-10-04T04:20:16.817Z,3.63
2018-10-04T04:22:44.851Z,4.17
2018-10-04T04:25:12.968Z,4.07
2018-10-04T04:27:41.065Z,3.43
2018-10-04T04:30:09.329Z,4.37
2018-10-04T04:32:37.718Z,4.27
2018-10-04T04:35:05.851Z,4.23
2018-10-04T04:37:34.136Z,4.33
2018-10-04T04:40:02.193Z,4.27
2018-10-04T04:42:30.251Z,5.40
2018-10-04T04:44:58.283Z,4.30
2018-10-04T04:47:26.346Z,4.40
2018-10-04T04:49:54.404Z,4.77
2018-10-04T04:52:22.511Z,4.63
2018-10-04T04:55:25.305Z,5.27
2018-10-04T04:57:54.283Z,5.43
2018-10-04T05:00:23.242Z,5.33
2018-10-04T05:02:51.484Z,5.67
2018-10-04T05:05:20.153Z,4.60
2018-10-04T05:07:49.394Z,5.70
2018-10-04T05:10:17.429Z,7.53
2018-10-04T05:12:45.532Z,5.60
2018-10-04T05:15:13.635Z,6.10
2018-10-04T05:17:41.658Z,5.70
2018-10-04T05:20:09.734Z,6.90
2018-10-04T05:22:37.765Z,6.83
2018-10-04T05:25:05.844Z,5.87
2018-10-04T05:27:34.436Z,5.77
2018-10-04T05:30:02.850Z,5.30
2018-10-04T05:32:31.073Z,6.87
2018-10-04T05:34:59.362Z,6.60
2018-10-04T05:37:27.471Z,6.60
2018-10-04T05:39:55.499Z,6.37
2018-10-04T05:42:23.519Z,7.03
2018-10-04T05:44:51.732Z,7.80
2018-10-04T05:47:19.717Z,6.93
2018-10-04T05:49:47.887Z,7.77
2018-10-04T05:52:16.341Z,7.37
2018-10-04T05:54:44.414Z,7.33
2018-10-04T05:57:12.585Z,8.30
2018-10-04T05:59:40.614Z,6.87
2018-10-04T06:02:08.674Z,8.00
2018-10-04T06:04:37.182Z,9.30
2018-10-04T06:07:05.235Z,9.40
2018-10-04T06:09:33.261Z,8.43
2018-10-04T06:12:01.368Z,8.67
2018-10-04T06:14:29.508Z,9.50
2018-10-04T06:16:57.586Z,8.60
2018-10-04T06:19:25.873Z,10.73
2018-10-04T06:21:54.114Z,11.17
2018-10-04T06:24:22.111Z,10.93
2018-10-04T06:26:50.145Z,10.03
2018-10-04T06:29:18.142Z,10.80
2018-10-04T06:31:46.161Z,9.53
2018-10-04T06:34:14.205Z,11.40
2018-10-04T06:39:10.230Z,10.10
2018-10-04T06:41:38.245Z,11.10
2018-10-04T06:44:06.418Z,10.87
2018-10-04T06:46:34.331Z,11.07
2018-10-04T06:49:02.369Z,10.57
2018-10-04T06:51:30.405Z,11.37
2018-10-04T06:53:58.432Z,11.27
2018-10-04T06:56:26.490Z,11.07
2018-10-04T06:59:01.191Z,11.17
2018-10-04T07:01:29.210Z,12.73
2018-10-04T07:03:57.325Z,11.33
2018-10-04T07:06:25.380Z,12.37
2018-10-04T07:08:53.506Z,13.00
2018-10-04T07:11:21.757Z,13.87
2018-10-04T07:13:49.799Z,12.73
2018-10-04T07:16:17.919Z,12.87
2018-10-04T07:18:46.005Z,12.33
2018-10-04T07:21:14.145Z,13.67
2018-10-04T07:23:42.212Z,13.40
2018-10-04T07:26:10.242Z,13.13
2018-10-04T07:28:38.261Z,13.80
2018-10-04T07:31:06.494Z,13.73
2018-10-04T07:33:34.579Z,12.00
2018-10-04T07:36:02.604Z,12.63
2018-10-04T07:38:30.666Z,12.70
2018-10-04T07:40:58.682Z,13.90
2018-10-04T07:43:26.782Z,13.23
2018-10-04T07:45:54.805Z,15.23
2018-10-04T07:48:22.870Z,13.53
2018-10-04T07:50:50.918Z,13.97
2018-10-04T07:53:19.034Z,13.90
2018-10-04T07:55:47.090Z,13.47
2018-10-04T07:58:15.158Z,14.40
2018-10-04T08:00:43.174Z,15.67
2018-10-04T08:03:11.302Z,14.27
2018-10-04T08:05:39.367Z,14.13
2018-10-04T08:08:07.374Z,14.70
2018-10-04T08:10:35.486Z,16.20
2018-10-04T08:13:03.529Z,16.27
2018-10-04T08:15:31.642Z,15.50
2018-10-04T08:17:59.602Z,16.07
2018-10-04T08:20:27.653Z,15.17
2018-10-04T08:22:55.738Z,15.73
2018-10-04T08:25:23.754Z,15.40
2018-10-04T08:27:51.822Z,17.23
2018-10-04T08:30:19.854Z,16.87
2018-10-04T08:32:48.039Z,17.07
2018-10-04T08:35:16.160Z,15.67
2018-10-04T08:37:44.196Z,16.70
2018-10-04T08:40:12.219Z,17.30
2018-10-04T08:42:40.286Z,17.07
2018-10-04T08:45:08.343Z,16.67
2018-10-04T08:47:36.453Z,16.00
2018-10-04T08:50:04.673Z,16.50
2018-10-04T08:52:38.261Z,16.63
2018-10-04T08:55:11.611Z,15.80
2018-10-04T08:57:39.650Z,15.30
2018-10-04T09:00:07.677Z,14.10
2018-10-04T09:02:35.824Z,14.50
2018-10-04T09:05:03.893Z,15.03
2018-10-04T09:07:32.051Z,13.87
2018-10-04T09:10:00.745Z,14.10
2018-10-04T09:12:30.068Z,14.70
2018-10-04T09:14:58.135Z,14.40
2018-10-04T09:17:26.457Z,12.73
2018-10-04T09:19:54.494Z,13.67
2018-10-04T09:22:22.590Z,13.50
2018-10-04T09:24:50.800Z,12.70
2018-10-04T09:27:18.851Z,11.97
2018-10-04T09:29:52.238Z,12.97
2018-10-04T09:32:20.294Z,13.27
2018-10-04T09:34:48.346Z,14.53
2018-10-04T09:37:16.441Z,14.33
2018-10-04T09:39:44.546Z,13.37
2018-10-04T09:42:12.647Z,12.17
2018-10-04T09:44:42.348Z,12.70
2018-10-04T09:47:15.798Z,11.20
2018-10-04T09:49:43.930Z,11.73
2018-10-04T09:52:11.982Z,13.60
2018-10-04T09:54:46.477Z,11.70
2018-10-04T09:57:19.854Z,12.93
2018-10-04T09:59:48.016Z,13.73
2018-10-04T10:02:17.721Z,14.40
2018-10-04T10:04:45.810Z,13.07
2018-10-04T10:07:13.930Z,13.70
2018-10-04T10:09:41.956Z,12.80
2018-10-04T10:12:10.162Z,12.00
2018-10-04T10:14:38.242Z,12.93
2018-10-04T10:17:06.276Z,13.37
2018-10-04T10:19:34.333Z,14.43
2018-10-04T10:22:02.365Z,14.07
2018-10-04T10:24:30.391Z,12.70
2018-10-04T10:26:58.414Z,15.17
2018-10-04T10:29:26.485Z,13.80
2018-10-04T10:31:54.619Z,14.07
2018-10-04T10:34:22.721Z,13.90
2018-10-04T10:36:50.744Z,13.20
2018-10-04T10:39:18.802Z,13.80
2018-10-04T10:41:46.865Z,13.53
2018-10-04T10:44:14.925Z,13.20
2018-10-04T10:46:43.033Z,13.73
2018-10-04T10:49:11.323Z,14.03
2018-10-04T10:51:39.400Z,14.93
2018-10-04T10:54:07.642Z,14.17
2018-10-04T10:56:35.714Z,14.93
2018-10-04T10:59:03.742Z,15.60
2018-10-04T11:01:31.962Z,15.53
2018-10-04T11:04:00.036Z,14.90
2018-10-04T11:06:28.130Z,16.27
2018-10-04T11:08:56.174Z,15.97
2018-10-04T11:11:24.237Z,15.40
2018-10-04T11:13:52.291Z,17.60
2018-10-04T11:16:20.373Z,16.87
2018-10-04T11:18:48.441Z,16.10
2018-10-04T11:21:16.657Z,16.20
2018-10-04T11:23:44.782Z,17.43
2018-10-04T11:26:12.866Z,18.13
2018-10-04T11:28:40.933Z,17.67
2018-10-04T11:31:09.009Z,19.10
2018-10-04T11:33:37.064Z,18.17
2018-10-04T11:36:05.135Z,20.00
2018-10-04T11:38:33.269Z,18.90
2018-10-04T11:41:01.356Z,19.00
2018-10-04T11:43:29.424Z,18.53
2018-10-04T11:45:58.817Z,19.40
2018-10-04T11:48:29.097Z,20.67
2018-10-04T11:50:57.138Z,20.13
2018-10-04T11:53:25.210Z,19.70
2018-10-04T11:55:53.270Z,19.03
2018-10-04T11:58:21.526Z,20.60
2018-10-04T12:00:49.697Z,20.23
2018-10-04T12:03:17.771Z,20.37
2018-10-04T12:05:45.803Z,20.30
2018-10-04T12:08:13.885Z,21.03
2018-10-04T12:10:41.942Z,21.50
2018-10-04T12:13:10.134Z,21.07
2018-10-04T12:15:38.210Z,19.57
2018-10-04T12:18:06.311Z,18.50
2018-10-04T12:20:34.346Z,18.67
2018-10-04T12:23:02.396Z,20.50
2018-10-04T12:25:30.544Z,19.50
2018-10-04T12:27:58.579Z,19.20
2018-10-04T12:30:26.604Z,20.00
2018-10-04T12:32:54.645Z,19.73
2018-10-04T12:35:22.693Z,18.80
2018-10-04T12:37:50.872Z,19.47
2018-10-04T12:40:18.946Z,18.03
2018-10-04T12:42:47.018Z,20.43
2018-10-04T12:45:15.057Z,18.60
2018-10-04T12:47:43.098Z,19.00
2018-10-04T12:50:11.199Z,19.33
2018-10-04T12:52:39.311Z,20.10
2018-10-04T12:55:07.281Z,19.33
2018-10-04T12:57:35.317Z,20.17
2018-10-04T13:00:03.368Z,18.17
2018-10-04T13:02:31.411Z,18.80
2018-10-04T13:04:59.450Z,17.67
2018-10-04T13:07:27.506Z,18.17
2018-10-04T13:09:55.553Z,19.10
2018-10-04T13:12:23.789Z,17.83
2018-10-04T13:14:51.920Z,17.17
2018-10-04T13:17:20.012Z,18.00
2018-10-04T13:19:48.063Z,17.13
2018-10-04T13:22:16.119Z,18.70
2018-10-04T13:24:44.173Z,17.90
2018-10-04T13:27:12.236Z,18.20
2018-10-04T13:29:40.297Z,18.53
2018-10-04T13:32:08.345Z,17.57
2018-10-04T13:34:36.396Z,17.73
2018-10-04T13:37:04.461Z,18.10
2018-10-04T13:39:32.541Z,17.63
2018-10-04T13:42:00.598Z,17.70
2018-10-04T13:44:28.650Z,16.17
2018-10-04T13:46:56.733Z,16.13
2018-10-04T13:49:24.887Z,16.03
2018-10-04T13:51:52.926Z,16.37
2018-10-04T13:54:20.995Z,17.10
2018-10-04T13:56:49.065Z,16.47
2018-10-04T13:59:17.136Z,16.77
2018-10-04T14:01:45.330Z,16.87
2018-10-04T14:04:13.578Z,16.70
2018-10-04T14:06:41.790Z,18.10
2018-10-04T14:09:09.974Z,17.67
2018-10-04T14:11:38.038Z,18.37
2018-10-04T14:14:06.360Z,16.67
2018-10-04T14:16:34.431Z,18.30
2018-10-04T14:19:02.614Z,16.60
2018-10-04T14:21:30.722Z,16.13
2018-10-04T14:23:58.766Z,17.13
2018-10-04T14:26:26.876Z,16.20
2018-10-04T14:28:54.906Z,16.60
2018-10-04T14:31:23.145Z,14.67
2018-10-04T14:33:51.290Z,15.70
2018-10-04T14:36:20.388Z,15.77
2018-10-04T14:38:48.525Z,15.20
2018-10-04T14:41:16.657Z,14.57
2018-10-04T14:43:44.898Z,14.80
2018-10-04T14:46:12.970Z,14.23
2018-10-04T14:48:41.061Z,15.07
2018-10-04T14:51:09.518Z,14.43
2018-10-04T14:53:37.579Z,12.70
2018-10-04T14:56:05.610Z,14.40
2018-10-04T14:58:33.697Z,14.83
2018-10-04T15:01:01.778Z,13.20
2018-10-04T15:03:29.940Z,13.80
2018-10-04T15:05:57.993Z,13.70
2018-10-04T15:08:26.110Z,12.43
2018-10-04T15:10:54.145Z,13.33
2018-10-04T15:13:22.245Z,13.37
2018-10-04T15:15:50.292Z,13.10
2018-10-04T15:18:18.350Z,14.43
2018-10-04T15:20:46.400Z,14.50
2018-10-04T15:23:14.461Z,11.80
2018-10-04T15:25:42.590Z,11.40
2018-10-04T15:28:10.634Z,12.60
2018-10-04T15:30:38.678Z,13.40
2018-10-04T15:33:06.985Z,12.20
2018-10-04T15:35:35.005Z,12.07
2018-10-04T15:38:03.049Z,12.10
2018-10-04T15:40:31.126Z,13.60
2018-10-04T15:42:59.205Z,11.03
2018-10-04T15:45:27.273Z,11.17
2018-10-04T15:47:55.362Z,12.17
2018-10-04T15:50:23.412Z,11.23
2018-10-04T15:52:51.509Z,11.47
2018-10-04T15:55:19.590Z,11.47
2018-10-04T15:57:47.633Z,12.20
2018-10-04T16:00:15.779Z,11.93
2018-10-04T16:02:43.844Z,10.67
2018-10-04T16:05:11.897Z,10.80
2018-10-04T16:07:39.923Z,10.40
2018-10-04T16:10:08.012Z,11.77
2018-10-04T16:12:36.098Z,10.77
2018-10-04T16:15:06.702Z,12.60
2018-10-04T16:17:34.717Z,11.00
2018-10-04T16:20:02.826Z,11.10
2018-10-04T16:22:30.885Z,11.47
2018-10-04T16:24:58.971Z,11.10
2018-10-04T16:27:32.309Z,11.07
2018-10-04T16:30:00.355Z,10.23
2018-10-04T16:32:28.410Z,10.73
2018-10-04T16:34:56.529Z,10.17
2018-10-04T16:37:24.706Z,11.97
2018-10-04T16:39:52.841Z,10.00
2018-10-04T16:42:20.907Z,10.43
2018-10-04T16:44:49.002Z,9.47
2018-10-04T16:47:17.186Z,10.10
2018-10-04T16:49:45.253Z,9.80
2018-10-04T16:52:13.347Z,9.87
2018-10-04T16:54:41.510Z,10.37
2018-10-04T16:57:09.567Z,9.90
2018-10-04T16:59:37.958Z,9.90
2018-10-04T17:02:06.011Z,10.10
2018-10-04T17:04:35.081Z,11.30
2018-10-04T17:07:03.163Z,10.17
2018-10-04T17:09:31.352Z,9.77
2018-10-04T17:11:59.377Z,11.10
2018-10-04T17:14:27.478Z,9.70
2018-10-04T17:16:55.514Z,9.77
2018-10-04T17:19:23.564Z,10.03
2018-10-04T17:21:51.674Z,8.80
2018-10-04T17:24:20.738Z,9.40
2018-10-04T17:26:48.842Z,8.63
2018-10-04T17:29:16.927Z,7.93
2018-10-04T17:31:44.990Z,9.60
2018-10-04T17:34:13.068Z,9.30
2018-10-04T17:36:42.174Z,10.53
2018-10-04T17:39:11.588Z,9.03
2018-10-04T17:41:40.700Z,9.20
2018-10-04T17:44:09.418Z,9.17
2018-10-04T17:46:37.492Z,8.13
2018-10-04T17:49:05.561Z,9.40
2018-10-04T17:51:33.932Z,8.40
2018-10-04T17:54:02.170Z,9.90
2018-10-04T17:56:30.226Z,9.23
2018-10-04T17:58:58.342Z,10.70
2018-10-04T18:01:26.381Z,9.63
2018-10-04T18:03:54.560Z,9.67
2018-10-04T18:06:22.772Z,9.20
2018-10-04T18:08:50.806Z,8.37
2018-10-04T18:11:19.404Z,8.07
2018-10-04T18:13:47.566Z,8.60
2018-10-04T18:16:15.670Z,9.97
2018-10-04T18:18:43.730Z,9.57
2018-10-04T18:21:11.919Z,8.30
2018-10-04T18:23:40.057Z,8.83
2018-10-04T18:26:08.110Z,9.30
2018-10-04T18:28:36.288Z,9.10
2018-10-04T18:31:04.470Z,9.20
2018-10-04T18:33:32.562Z,8.97
2018-10-04T18:36:00.663Z,10.00
2018-10-04T18:38:28.720Z,9.87
2018-10-04T18:40:56.737Z,9.17
2018-10-04T18:43:24.788Z,9.60
2018-10-04T18:45:52.825Z,8.50
2018-10-04T18:48:20.874Z,9.20
2018-10-04T18:50:48.929Z,9.00
2018-10-04T18:53:16.973Z,8.47
2018-10-04T18:55:45.035Z,8.83
2018-10-04T18:58:13.200Z,9.30
2018-10-04T19:00:41.280Z,8.17
2018-10-04T19:03:09.306Z,8.87
2018-10-04T19:05:38.517Z,9.60
2018-10-04T19:08:06.545Z,9.37
2018-10-04T19:10:34.599Z,8.50
2018-10-04T19:13:02.669Z,11.70
2018-10-04T19:15:30.711Z,8.10
2018-10-04T19:17:58.781Z,8.13
2018-10-04T19:20:26.854Z,8.37
2018-10-04T19:22:55.044Z,8.80
2018-10-04T19:25:23.124Z,9.07
2018-10-04T19:27:51.208Z,8.43
2018-10-04T19:30:19.290Z,7.80
2018-10-04T19:32:47.340Z,8.97
2018-10-04T19:35:15.406Z,9.03
2018-10-04T19:37:43.442Z,8.40
2018-10-04T19:40:12.558Z,8.60
2018-10-04T19:42:40.619Z,8.73
2018-10-04T19:45:08.834Z,8.57
2018-10-04T19:47:36.941Z,9.03
2018-10-04T19:50:05.197Z,9.93
2018-10-04T19:52:33.298Z,11.40
2018-10-04T19:55:01.383Z,9.63
2018-10-04T19:57:29.496Z,8.87
2018-10-04T19:59:57.577Z,9.70
2018-10-04T20:02:25.651Z,8.37
2018-10-04T20:04:53.762Z,8.80
2018-10-04T20:07:21.813Z,8.20
2018-10-04T20:09:50.005Z,7.80
2018-10-04T20:12:18.064Z,9.23
2018-10-04T20:14:46.122Z,8.50
2018-10-04T20:17:14.210Z,7.57
2018-10-04T20:19:42.229Z,8.53
2018-10-04T20:22:13.463Z,8.70
2018-10-04T20:24:41.514Z,8.20
2018-10-04T20:27:10.906Z,9.20
2018-10-04T20:29:39.194Z,8.37
2018-10-04T20:32:07.773Z,7.77
2018-10-04T20:34:35.851Z,8.87
2018-10-04T20:37:04.234Z,8.20
2018-10-04T20:39:33.703Z,8.20
2018-10-04T20:42:01.761Z,8.97
2018-10-04T20:44:30.021Z,8.33
2018-10-04T20:46:58.122Z,8.97
2018-10-04T20:49:26.166Z,8.50
2018-10-04T20:51:54.224Z,9.53
2018-10-04T20:54:22.309Z,8.50
2018-10-04T20:56:50.493Z,8.90
2018-10-04T20:59:18.578Z,8.80
2018-10-04T21:01:46.606Z,9.40
2018-10-04T21:04:14.659Z,8.70
2018-10-04T21:06:42.925Z,8.40
2018-10-04T21:09:12.536Z,9.07
2018-10-04T21:11:41.425Z,8.60
2018-10-04T21:14:09.910Z,8.30
2018-10-04T21:16:37.949Z,9.20
2018-10-04T21:19:06.974Z,8.70
2018-10-04T21:21:35.134Z,8.93
2018-10-04T21:24:03.194Z,8.93
2018-10-04T21:26:31.262Z,7.70
2018-10-04T21:28:59.320Z,8.23
2018-10-04T21:31:27.610Z,8.30
2018-10-04T21:33:55.739Z,8.60
2018-10-04T21:36:23.804Z,7.90
2018-10-04T21:38:51.854Z,8.03
2018-10-04T21:41:19.924Z,8.13
2018-10-04T21:43:48.131Z,7.80
2018-10-04T21:46:16.293Z,7.80
2018-10-04T21:48:44.398Z,8.63
2018-10-04T21:51:12.489Z,8.23
2018-10-04T21:53:40.542Z,6.80
2018-10-04T21:56:08.592Z,8.30
2018-10-04T21:58:36.788Z,8.23
2018-10-04T22:01:05.539Z,8.87
2018-10-04T22:03:33.655Z,7.47
2018-10-04T22:06:01.706Z,9.20
2018-10-04T22:08:29.778Z,8.63
2018-10-04T22:11:04.103Z,9.03
2018-10-04T22:13:32.177Z,8.07
2018-10-04T22:16:00.234Z,8.97
2018-10-04T22:18:28.288Z,8.07
2018-10-04T22:20:56.319Z,8.70
2018-10-04T22:23:24.351Z,7.90
2018-10-04T22:25:52.421Z,9.20
2018-10-04T22:28:20.513Z,8.60
2018-10-04T22:30:48.537Z,9.33
2018-10-04T22:33:16.627Z,10.60
2018-10-04T22:35:44.715Z,9.63
2018-10-04T22:38:12.760Z,11.80
2018-10-04T22:40:40.825Z,13.17
2018-10-04T22:43:08.994Z,11.60
2018-10-04T22:45:37.042Z,12.00
2018-10-04T22:48:05.078Z,9.67
2018-10-04T22:50:33.130Z,10.67
2018-10-04T22:53:01.234Z,12.60
2018-10-04T22:55:29.290Z,11.90
2018-10-04T22:58:02.071Z,12.60
2018-10-04T23:00:30.642Z,12.40
2018-10-04T23:02:58.897Z,11.23
2018-10-04T23:05:26.993Z,10.70
2018-10-04T23:07:55.083Z,10.63
2018-10-04T23:10:23.124Z,10.40
2018-10-04T23:12:51.177Z,10.50
2018-10-04T23:15:19.754Z,9.53
2018-10-04T23:17:47.777Z,10.80
2018-10-04T23:20:15.850Z,9.37
2018-10-04T23:22:43.875Z,9.43
2018-10-04T23:25:11.926Z,9.57
2018-10-04T23:27:39.962Z,9.63
2018-10-04T23:30:08.842Z,9.77
2018-10-04T23:32:36.905Z,9.37
2018-10-04T23:35:04.953Z,9.23
2018-10-04T23:37:32.981Z,10.87
2018-10-04T23:40:01.017Z,9.43
2018-10-04T23:42:29.104Z,8.17
2018-10-04T23:44:57.094Z,11.07
2018-10-04T23:47:25.210Z,10.40
2018-10-04T23:49:53.352Z,10.10
2018-10-04T23:52:21.487Z,8.43
2018-10-04T23:54:49.579Z,9.20
2018-10-04T23:57:17.709Z,9.60
2018-10-04T23:59:45.751Z,10.13
